createdAt,value
2023-03-23T15:58:30.384Z,99334.41
2023-03-23T16:00:59.197Z,99335.59
2023-03-23T16:03:28.633Z,99336.09
2023-03-23T16:05:57.487Z,99341.50
2023-03-23T16:08:25.394Z,99328.38
2023-03-23T16:10:55.749Z,99331.31
2023-03-23T16:13:27.958Z,99334.44
2023-03-23T16:15:57.228Z,99322.38
2023-03-23T16:18:25.043Z,99328.56
2023-03-23T16:20:52.862Z,99326.38
2023-03-23T16:23:21.225Z,99321.44
2023-03-23T16:25:49.017Z,99326.22
2023-03-23T16:28:17.334Z,99324.03
2023-03-23T16:30:46.291Z,99331.88
2023-03-23T16:33:16.106Z,99332.06
2023-03-23T16:35:44.916Z,99326.09
2023-03-23T16:38:14.069Z,99333.84
2023-03-23T16:40:42.612Z,99333.25
2023-03-23T16:43:10.804Z,99332.44
2023-03-23T16:45:40.994Z,99330.72
2023-03-23T16:48:10.725Z,99325.09
2023-03-23T16:50:40.899Z,99335.56
2023-03-23T16:53:11.970Z,99331.59
2023-03-23T16:55:40.699Z,99326.06
2023-03-23T16:58:16.976Z,99322.63
2023-03-23T17:00:46.743Z,99329.25
2023-03-23T17:03:21.739Z,99329.25
2023-03-23T17:05:51.612Z,99332.34
2023-03-23T17:08:19.952Z,99330.03
2023-03-23T17:10:47.876Z,99319.84
2023-03-23T17:13:15.797Z,99319.56
2023-03-23T17:15:46.553Z,99325.00
2023-03-23T17:18:16.090Z,99315.13
2023-03-23T17:20:44.514Z,99304.13
2023-03-23T17:23:13.748Z,99312.88
2023-03-23T17:25:41.729Z,99307.84
2023-03-23T17:28:09.683Z,99303.84
2023-03-23T17:30:40.577Z,99312.34
2023-03-23T17:33:08.921Z,99316.09
2023-03-23T17:35:37.591Z,99314.88
2023-03-23T17:38:05.741Z,99308.59
2023-03-23T17:40:35.266Z,99312.03
2023-03-23T17:43:02.916Z,99306.84
2023-03-23T17:45:30.702Z,99313.03
2023-03-23T17:47:58.681Z,99310.84
2023-03-23T17:50:26.967Z,99305.06
2023-03-23T17:52:57.023Z,99308.34
2023-03-23T17:55:25.442Z,99312.34
2023-03-23T17:57:54.754Z,99310.69
2023-03-23T18:00:23.492Z,99307.53
2023-03-23T18:02:51.386Z,99309.72
2023-03-23T18:05:19.559Z,99308.91
2023-03-23T18:07:47.531Z,99312.19
2023-03-23T18:10:15.478Z,99310.03
2023-03-23T18:12:43.823Z,99317.84
2023-03-23T18:15:13.756Z,99320.19
2023-03-23T18:17:42.473Z,99325.66
2023-03-23T18:20:10.731Z,99320.81
2023-03-23T18:22:39.093Z,99328.66
2023-03-23T18:25:07.988Z,99327.09
2023-03-23T18:27:36.144Z,99324.44
2023-03-23T18:30:04.329Z,99321.91
2023-03-23T18:32:35.906Z,99320.41
2023-03-23T18:35:04.975Z,99315.78
2023-03-23T18:37:33.225Z,99305.16
2023-03-23T18:40:01.418Z,99306.38
2023-03-23T18:42:29.378Z,99297.72
2023-03-23T18:44:59.853Z,99298.22
2023-03-23T18:47:28.753Z,99303.59
2023-03-23T18:50:00.060Z,99309.59
2023-03-23T18:52:31.048Z,99314.50
2023-03-23T18:54:59.074Z,99299.06
2023-03-23T18:57:27.547Z,99304.63
2023-03-23T18:59:56.340Z,99292.03
2023-03-23T19:02:24.047Z,99301.38
2023-03-23T19:04:52.522Z,99302.50
2023-03-23T19:07:22.152Z,99314.31
2023-03-23T19:09:50.468Z,99300.69
2023-03-23T19:12:20.931Z,99306.00
2023-03-23T19:14:48.597Z,99307.66
2023-03-23T19:17:17.272Z,99307.00
2023-03-23T19:19:44.932Z,99302.84
2023-03-23T19:22:12.940Z,99304.09
2023-03-23T19:24:41.973Z,99297.41
2023-03-23T19:27:09.852Z,99305.88
2023-03-23T19:29:38.177Z,99302.25
2023-03-23T19:32:06.466Z,99299.50
2023-03-23T19:34:35.769Z,99295.16
2023-03-23T19:37:06.208Z,99300.81
2023-03-23T19:39:41.708Z,99298.50
2023-03-23T19:42:16.953Z,99284.97
2023-03-23T19:44:46.229Z,99278.16
2023-03-23T19:47:14.465Z,99287.25
2023-03-23T19:49:42.500Z,99284.25
2023-03-23T19:52:13.477Z,99280.00
2023-03-23T19:54:42.778Z,99282.56
2023-03-23T19:57:12.465Z,99279.72
2023-03-23T19:59:40.580Z,99274.50
2023-03-23T20:02:11.877Z,99271.84
2023-03-23T20:04:40.862Z,99260.59
2023-03-23T20:07:08.629Z,99280.97
2023-03-23T20:09:39.675Z,99273.41
2023-03-23T20:12:09.668Z,99269.22
2023-03-23T20:14:45.080Z,99270.38
2023-03-23T20:17:14.532Z,99258.38
2023-03-23T20:19:43.047Z,99254.53
2023-03-23T20:22:11.350Z,99250.63
2023-03-23T20:24:39.339Z,99247.19
2023-03-23T20:27:08.015Z,99245.91
2023-03-23T20:29:36.037Z,99250.63
2023-03-23T20:32:05.571Z,99237.31
2023-03-23T20:34:33.409Z,99241.81
2023-03-23T20:37:02.928Z,99239.72
2023-03-23T20:39:32.611Z,99231.81
2023-03-23T20:42:03.022Z,99226.59
2023-03-23T20:44:37.169Z,99225.50
2023-03-23T20:47:06.868Z,99220.88
2023-03-23T20:49:37.730Z,99225.31
2023-03-23T20:52:12.001Z,99220.78
2023-03-23T20:54:40.887Z,99212.25
2023-03-23T20:57:09.641Z,99198.66
2023-03-23T20:59:37.722Z,99200.69
2023-03-23T21:02:09.733Z,99207.16
2023-03-23T21:04:40.077Z,99198.13
2023-03-23T21:07:08.681Z,99200.38
2023-03-23T21:09:36.752Z,99203.41
2023-03-23T21:12:06.331Z,99207.94
2023-03-23T21:14:34.160Z,99200.31
2023-03-23T21:17:02.583Z,99206.91
2023-03-23T21:19:32.521Z,99201.53
2023-03-23T21:22:00.452Z,99201.28
2023-03-23T21:24:29.334Z,99191.94
2023-03-23T21:26:58.107Z,99189.88
2023-03-23T21:29:28.254Z,99188.88
2023-03-23T21:34:28.315Z,99182.47
2023-03-23T21:36:57.454Z,99179.72
2023-03-23T21:39:27.542Z,99179.06
2023-03-23T21:41:55.691Z,99173.66
2023-03-23T21:44:28.350Z,99173.03
2023-03-23T21:46:56.960Z,99169.66
2023-03-23T21:49:24.852Z,99164.28
2023-03-23T21:51:52.610Z,99160.50
2023-03-23T21:54:22.250Z,99164.53
2023-03-23T21:56:50.454Z,99165.56
2023-03-23T21:59:18.596Z,99152.09
2023-03-23T22:01:48.219Z,99151.72
2023-03-23T22:04:17.286Z,99151.56
2023-03-23T22:06:45.348Z,99148.06
2023-03-23T22:09:14.052Z,99152.09
2023-03-23T22:11:44.508Z,99138.06
2023-03-23T22:14:13.770Z,99136.41
2023-03-23T22:16:42.028Z,99140.53
2023-03-23T22:19:12.836Z,99134.16
2023-03-23T22:21:45.237Z,99141.34
2023-03-23T22:24:13.973Z,99147.56
2023-03-23T22:26:44.888Z,99147.09
2023-03-23T22:29:13.389Z,99154.28
2023-03-23T22:31:41.705Z,99145.84
2023-03-23T22:34:10.105Z,99144.19
2023-03-23T22:36:39.519Z,99139.50
2023-03-23T22:39:08.363Z,99134.44
2023-03-23T22:41:38.135Z,99135.22
2023-03-23T22:44:12.210Z,99133.16
2023-03-23T22:46:40.445Z,99130.53
2023-03-23T22:49:08.761Z,99117.97
2023-03-23T22:51:37.333Z,99120.88
2023-03-23T22:54:06.117Z,99111.94
2023-03-23T22:56:36.954Z,99101.56
2023-03-23T22:59:05.675Z,99093.78
2023-03-23T23:01:36.328Z,99108.66
2023-03-23T23:04:05.459Z,99110.38
2023-03-23T23:06:33.688Z,99112.91
2023-03-23T23:09:01.714Z,99110.72
2023-03-23T23:11:31.504Z,99116.19
2023-03-23T23:13:59.482Z,99104.53
2023-03-23T23:16:27.931Z,99090.97
2023-03-23T23:19:04.866Z,99086.41
2023-03-23T23:21:32.714Z,99092.22
2023-03-23T23:24:00.765Z,99090.47
2023-03-23T23:26:29.086Z,99091.06
2023-03-23T23:28:56.986Z,99099.03
2023-03-23T23:31:27.525Z,99092.19
2023-03-23T23:33:57.877Z,99086.41
2023-03-23T23:36:28.331Z,99082.41
2023-03-23T23:38:56.733Z,99073.09
2023-03-23T23:41:25.329Z,99070.63
2023-03-23T23:43:55.789Z,99071.06
2023-03-23T23:46:26.615Z,99067.22
2023-03-23T23:48:54.965Z,99053.09
2023-03-23T23:51:27.554Z,99046.13
2023-03-23T23:53:59.147Z,99047.88
2023-03-23T23:56:30.491Z,99052.81
2023-03-23T23:58:58.501Z,99057.09
